Terminal Aerodrome Forecast
Issued by NWS Charleston, WV

Current Version | Previous Version | Graphics & Text | Print | Product List | Glossary On
Versions: 1 2 3 4 5 6 7 8 9 10 11 12 13 14 15 16 17 18 19 20 21 22 23 24 25 26 27 28
532
FTUS41 KRLX 280900 AAA
TAFPKB
TAF AMD
KPKB 280900Z 2809/2906 17003KT 6SM SHRA BR BKN080
     FM281100 VRB03KT 2SM SHRA BR OVC009
     FM281400 25005KT P6SM VCSH OVC015
     FM282000 33006KT P6SM BKN025=

USA.gov is the U.S. government's official web portal to all federal, state and local government web resources and services.